Holly Ridge, NC (28445)

6:16 AM EST on February 09, 2016 (GMT -0500)
ashe island estates | | Change Station
CLOSE
Current Station
Personal Weather Station
Location: North Topsail Beach, NC
Elevation: 10 ft
Nearby Weather Stations

Elev 10 ft 34.48 °N, 77.46 °W | Updated 34 seconds ago

Clear
Clear
41.4 °F
Feels Like 36 °F
N
8.0
Wind Variable Wind from West
Gusts 15.0 mph

Today
High -- | Low -- °F
--% Chance of Precip.
Yesterday
High -- | Low -- °F
Precip. -- in
Pressure 29.64 in
Visibility 6.0 miles
Clouds Clear
Windchill 36 °F
Dew Point 40 °F
Humidity 93%
Rainfall 0.00 in
Snow Depth Not available.
7:01 AM 5:47 PM
New Moon, 1% visible
METAR KNCA 091056Z AUTO 25006KT 6SM BR CLR 04/03 A2963 RMK AO2 SLP036 T00390028
Pressure 29.64 in
Visibility 6.0 miles
Clouds Clear
Windchill 36 °F
Dew Point 40 °F
Humidity 93%
Rainfall 0.00 in
Snow Depth Not available.
7:01 AM 5:47 PM
New Moon, 1% visible
METAR KNCA 091056Z AUTO 25006KT 6SM BR CLR 04/03 A2963 RMK AO2 SLP036 T00390028

10-Day Weather Forecast

Almanac

Astronomy

Feb. 09, 2016 Rise Set
Actual Time
Civil Twilight
Nautical Twilight
Astronomical Twilight
Moon
Length of Visible Light
Length of Day
Tomorrow will be .
, % of the Moon is Illuminated

Today's Extremes

State Highs State Lows

Community

WunderPhotos

Upload Photos

1,891,565 photos uploaded!

WunderBlog® & News

Nearby

Air Quality

  Air Quality AQ Index Pollutant
Not available.

Snow Depth

Station Depth Elevation

Earthquake Activity

City Distance Mag. Time & Date
Minimum magnitude displayed is 2.5.

Coastal Water Temperatures

Place Temperature

Stations

Nearby Weather Stations

Station Location Temp. Windchill Dew Point Humidity Wind Precip. Elev Updated Type
                   

Watches & Warnings

There are currently no watches in effect.